sensor_id;sensor_type;location;lat;lon;timestamp;temperature;humidity
15455;DHT22;21057;51.024;7.540;2023-04-08T00:01:44;8.20;99.90
15455;DHT22;21057;51.024;7.540;2023-04-08T00:04:11;8.30;99.90
15455;DHT22;21057;51.024;7.540;2023-04-08T00:06:54;8.10;99.90
15455;DHT22;21057;51.024;7.540;2023-04-08T00:09:21;8.10;99.90
15455;DHT22;21057;51.024;7.540;2023-04-08T00:11:58;8.20;99.90
15455;DHT22;21057;51.024;7.540;2023-04-08T00:14:25;8.30;99.90
15455;DHT22;21057;51.024;7.540;2023-04-08T00:16:52;8.60;99.90
15455;DHT22;21057;51.024;7.540;2023-04-08T00:19:24;8.50;99.90
15455;DHT22;21057;51.024;7.540;2023-04-08T00:21:51;8.50;99.90
15455;DHT22;21057;51.024;7.540;2023-04-08T00:24:19;8.50;99.90
15455;DHT22;21057;51.024;7.540;2023-04-08T00:26:46;8.50;99.90
15455;DHT22;21057;51.024;7.540;2023-04-08T00:29:13;8.70;99.90
15455;DHT22;21057;51.024;7.540;2023-04-08T00:31:40;8.70;99.90
15455;DHT22;21057;51.024;7.540;2023-04-08T00:34:07;8.70;99.90
15455;DHT22;21057;51.024;7.540;2023-04-08T00:36:34;8.70;99.90
15455;DHT22;21057;51.024;7.540;2023-04-08T00:39:01;8.70;99.90
15455;DHT22;21057;51.024;7.540;2023-04-08T00:41:30;8.80;99.90
15455;DHT22;21057;51.024;7.540;2023-04-08T00:43:56;8.70;99.90
15455;DHT22;21057;51.024;7.540;2023-04-08T00:46:23;8.70;99.90
15455;DHT22;21057;51.024;7.540;2023-04-08T00:48:56;8.80;99.90
15455;DHT22;21057;51.024;7.540;2023-04-08T00:51:23;8.80;99.90
15455;DHT22;21057;51.024;7.540;2023-04-08T00:53:50;8.90;99.90
15455;DHT22;21057;51.024;7.540;2023-04-08T00:56:17;8.90;99.90
15455;DHT22;21057;51.024;7.540;2023-04-08T00:58:45;8.80;99.90
15455;DHT22;21057;51.024;7.540;2023-04-08T01:01:18;8.70;99.90
15455;DHT22;21057;51.024;7.540;2023-04-08T01:03:56;8.90;99.90
15455;DHT22;21057;51.024;7.540;2023-04-08T01:06:47;8.70;99.90
15455;DHT22;21057;51.024;7.540;2023-04-08T01:09:18;8.90;99.90
15455;DHT22;21057;51.024;7.540;2023-04-08T01:11:49;8.70;99.90
15455;DHT22;21057;51.024;7.540;2023-04-08T01:14:20;8.70;99.90
15455;DHT22;21057;51.024;7.540;2023-04-08T01:16:47;8.80;99.90
15455;DHT22;21057;51.024;7.540;2023-04-08T01:19:20;8.80;99.90
15455;DHT22;21057;51.024;7.540;2023-04-08T01:21:50;8.70;99.90
15455;DHT22;21057;51.024;7.540;2023-04-08T01:24:21;8.80;99.90
15455;DHT22;21057;51.024;7.540;2023-04-08T01:26:50;8.70;99.90
15455;DHT22;21057;51.024;7.540;2023-04-08T01:29:18;8.60;99.90
15455;DHT22;21057;51.024;7.540;2023-04-08T01:31:46;8.60;99.90
15455;DHT22;21057;51.024;7.540;2023-04-08T01:34:14;8.60;99.90
15455;DHT22;21057;51.024;7.540;2023-04-08T01:36:44;8.60;99.90
15455;DHT22;21057;51.024;7.540;2023-04-08T01:39:13;8.50;99.90
15455;DHT22;21057;51.024;7.540;2023-04-08T01:41:42;8.40;99.90
15455;DHT22;21057;51.024;7.540;2023-04-08T01:44:14;8.30;99.90
15455;DHT22;21057;51.024;7.540;2023-04-08T01:46:42;8.30;99.90
15455;DHT22;21057;51.024;7.540;2023-04-08T01:49:16;8.30;99.90
15455;DHT22;21057;51.024;7.540;2023-04-08T01:51:47;8.20;99.90
15455;DHT22;21057;51.024;7.540;2023-04-08T01:54:14;8.00;99.90
15455;DHT22;21057;51.024;7.540;2023-04-08T01:56:43;8.00;99.90
15455;DHT22;21057;51.024;7.540;2023-04-08T01:59:16;7.90;99.90
15455;DHT22;21057;51.024;7.540;2023-04-08T02:01:44;7.80;99.90
15455;DHT22;21057;51.024;7.540;2023-04-08T02:04:12;7.70;99.90
15455;DHT22;21057;51.024;7.540;2023-04-08T02:06:42;7.80;99.90
15455;DHT22;21057;51.024;7.540;2023-04-08T02:09:09;7.90;99.90
15455;DHT22;21057;51.024;7.540;2023-04-08T02:11:39;7.90;99.90
15455;DHT22;21057;51.024;7.540;2023-04-08T02:14:06;7.80;99.90
15455;DHT22;21057;51.024;7.540;2023-04-08T02:16:39;7.60;99.90
15455;DHT22;21057;51.024;7.540;2023-04-08T02:19:13;7.60;99.90
15455;DHT22;21057;51.024;7.540;2023-04-08T02:21:45;7.50;99.90
15455;DHT22;21057;51.024;7.540;2023-04-08T02:24:23;7.30;99.90
15455;DHT22;21057;51.024;7.540;2023-04-08T02:26:51;7.30;99.90
15455;DHT22;21057;51.024;7.540;2023-04-08T02:29:20;7.30;99.90
15455;DHT22;21057;51.024;7.540;2023-04-08T02:31:50;7.30;99.90
15455;DHT22;21057;51.024;7.540;2023-04-08T02:34:19;7.20;99.90
15455;DHT22;21057;51.024;7.540;2023-04-08T02:36:47;7.10;99.90
15455;DHT22;21057;51.024;7.540;2023-04-08T02:39:15;7.10;99.90
15455;DHT22;21057;51.024;7.540;2023-04-08T02:41:42;7.10;99.90
15455;DHT22;21057;51.024;7.540;2023-04-08T02:44:09;7.10;99.90
15455;DHT22;21057;51.024;7.540;2023-04-08T02:46:36;7.10;99.90
15455;DHT22;21057;51.024;7.540;2023-04-08T02:49:04;7.00;99.90
15455;DHT22;21057;51.024;7.540;2023-04-08T02:51:31;6.90;99.90
15455;DHT22;21057;51.024;7.540;2023-04-08T02:53:58;6.90;99.90
15455;DHT22;21057;51.024;7.540;2023-04-08T02:56:24;6.70;99.90
15455;DHT22;21057;51.024;7.540;2023-04-08T02:58:51;6.70;99.90
15455;DHT22;21057;51.024;7.540;2023-04-08T03:01:18;6.70;99.90
15455;DHT22;21057;51.024;7.540;2023-04-08T03:03:45;6.70;99.90
15455;DHT22;21057;51.024;7.540;2023-04-08T03:06:21;6.80;99.90
15455;DHT22;21057;51.024;7.540;2023-04-08T03:08:48;6.80;99.90
15455;DHT22;21057;51.024;7.540;2023-04-08T03:11:15;6.70;99.90
15455;DHT22;21057;51.024;7.540;2023-04-08T03:13:42;6.70;99.90
15455;DHT22;21057;51.024;7.540;2023-04-08T03:16:11;6.80;99.90
15455;DHT22;21057;51.024;7.540;2023-04-08T03:18:56;6.80;99.90
15455;DHT22;21057;51.024;7.540;2023-04-08T03:21:24;6.60;99.90
15455;DHT22;21057;51.024;7.540;2023-04-08T03:23:58;6.50;99.90
15455;DHT22;21057;51.024;7.540;2023-04-08T03:26:25;6.30;99.90
15455;DHT22;21057;51.024;7.540;2023-04-08T03:28:52;6.30;99.90
15455;DHT22;21057;51.024;7.540;2023-04-08T03:31:20;6.10;99.90
15455;DHT22;21057;51.024;7.540;2023-04-08T03:33:47;6.00;99.90
15455;DHT22;21057;51.024;7.540;2023-04-08T03:36:14;6.10;99.90
15455;DHT22;21057;51.024;7.540;2023-04-08T03:38:43;6.20;99.90
15455;DHT22;21057;51.024;7.540;2023-04-08T03:41:10;6.20;99.90
15455;DHT22;21057;51.024;7.540;2023-04-08T03:43:37;6.10;99.90
15455;DHT22;21057;51.024;7.540;2023-04-08T03:46:04;6.00;99.90
15455;DHT22;21057;51.024;7.540;2023-04-08T03:48:31;5.90;99.90
15455;DHT22;21057;51.024;7.540;2023-04-08T03:51:00;5.90;99.90
15455;DHT22;21057;51.024;7.540;2023-04-08T03:53:27;5.70;99.90
15455;DHT22;21057;51.024;7.540;2023-04-08T03:55:55;5.70;99.90
15455;DHT22;21057;51.024;7.540;2023-04-08T03:58:22;5.70;99.90
15455;DHT22;21057;51.024;7.540;2023-04-08T04:00:49;5.80;99.90
15455;DHT22;21057;51.024;7.540;2023-04-08T04:03:16;5.80;99.90
15455;DHT22;21057;51.024;7.540;2023-04-08T04:05:43;5.50;99.90
15455;DHT22;21057;51.024;7.540;2023-04-08T04:08:10;5.50;99.90
15455;DHT22;21057;51.024;7.540;2023-04-08T04:10:37;5.50;99.90
15455;DHT22;21057;51.024;7.540;2023-04-08T04:13:07;5.50;99.90
15455;DHT22;21057;51.024;7.540;2023-04-08T04:15:37;5.50;99.90
15455;DHT22;21057;51.024;7.540;2023-04-08T04:18:04;5.60;99.90
15455;DHT22;21057;51.024;7.540;2023-04-08T04:20:33;5.60;99.90
15455;DHT22;21057;51.024;7.540;2023-04-08T04:23:00;5.70;99.90
15455;DHT22;21057;51.024;7.540;2023-04-08T04:25:27;5.70;99.90
15455;DHT22;21057;51.024;7.540;2023-04-08T04:27:54;5.60;99.90
15455;DHT22;21057;51.024;7.540;2023-04-08T04:30:22;5.30;99.90
15455;DHT22;21057;51.024;7.540;2023-04-08T04:33:03;5.30;99.90
15455;DHT22;21057;51.024;7.540;2023-04-08T04:35:30;5.30;99.90
15455;DHT22;21057;51.024;7.540;2023-04-08T04:37:57;5.30;99.90
15455;DHT22;21057;51.024;7.540;2023-04-08T04:40:24;5.40;99.90
15455;DHT22;21057;51.024;7.540;2023-04-08T04:42:51;5.40;99.90
15455;DHT22;21057;51.024;7.540;2023-04-08T04:45:18;5.50;99.90
15455;DHT22;21057;51.024;7.540;2023-04-08T04:47:47;5.40;99.90
15455;DHT22;21057;51.024;7.540;2023-04-08T04:50:19;5.50;99.90
15455;DHT22;21057;51.024;7.540;2023-04-08T04:52:46;5.50;99.90
15455;DHT22;21057;51.024;7.540;2023-04-08T04:55:15;5.50;99.90
15455;DHT22;21057;51.024;7.540;2023-04-08T04:57:42;5.50;99.90
15455;DHT22;21057;51.024;7.540;2023-04-08T05:00:10;5.50;99.90
15455;DHT22;21057;51.024;7.540;2023-04-08T05:02:39;5.30;99.90
15455;DHT22;21057;51.024;7.540;2023-04-08T05:05:08;5.40;99.90
15455;DHT22;21057;51.024;7.540;2023-04-08T05:07:35;5.30;99.90
15455;DHT22;21057;51.024;7.540;2023-04-08T05:10:02;5.40;99.90
15455;DHT22;21057;51.024;7.540;2023-04-08T05:12:31;5.60;99.90
15455;DHT22;21057;51.024;7.540;2023-04-08T05:14:58;5.60;99.90
15455;DHT22;21057;51.024;7.540;2023-04-08T05:17:25;5.70;99.90
15455;DHT22;21057;51.024;7.540;2023-04-08T05:19:52;5.90;99.90
15455;DHT22;21057;51.024;7.540;2023-04-08T05:22:20;6.00;99.90
15455;DHT22;21057;51.024;7.540;2023-04-08T05:24:48;6.00;99.90
15455;DHT22;21057;51.024;7.540;2023-04-08T05:27:15;6.10;99.90
15455;DHT22;21057;51.024;7.540;2023-04-08T05:29:41;6.20;99.90
15455;DHT22;21057;51.024;7.540;2023-04-08T05:32:08;6.30;99.90
15455;DHT22;21057;51.024;7.540;2023-04-08T05:34:41;6.30;99.90
15455;DHT22;21057;51.024;7.540;2023-04-08T05:37:08;6.20;99.90
15455;DHT22;21057;51.024;7.540;2023-04-08T05:39:36;6.20;99.90
15455;DHT22;21057;51.024;7.540;2023-04-08T05:42:05;6.20;99.90
15455;DHT22;21057;51.024;7.540;2023-04-08T05:44:31;6.30;99.90
15455;DHT22;21057;51.024;7.540;2023-04-08T05:46:58;6.20;99.90
15455;DHT22;21057;51.024;7.540;2023-04-08T05:49:25;6.40;99.90
15455;DHT22;21057;51.024;7.540;2023-04-08T05:51:52;6.40;99.90
15455;DHT22;21057;51.024;7.540;2023-04-08T05:54:19;6.40;99.90
15455;DHT22;21057;51.024;7.540;2023-04-08T05:56:47;6.50;99.90
15455;DHT22;21057;51.024;7.540;2023-04-08T05:59:14;6.60;99.90
15455;DHT22;21057;51.024;7.540;2023-04-08T06:01:40;6.60;99.90
15455;DHT22;21057;51.024;7.540;2023-04-08T06:04:07;6.50;99.90
15455;DHT22;21057;51.024;7.540;2023-04-08T06:06:45;6.40;99.90
15455;DHT22;21057;51.024;7.540;2023-04-08T06:09:12;6.50;99.90
15455;DHT22;21057;51.024;7.540;2023-04-08T06:11:42;6.70;99.90
15455;DHT22;21057;51.024;7.540;2023-04-08T06:14:10;6.80;99.90
15455;DHT22;21057;51.024;7.540;2023-04-08T06:16:37;6.70;99.90
15455;DHT22;21057;51.024;7.540;2023-04-08T06:19:03;6.70;99.90
15455;DHT22;21057;51.024;7.540;2023-04-08T06:21:30;6.90;99.90
15455;DHT22;21057;51.024;7.540;2023-04-08T06:24:09;6.80;99.90
15455;DHT22;21057;51.024;7.540;2023-04-08T06:26:36;7.00;99.90
15455;DHT22;21057;51.024;7.540;2023-04-08T06:29:02;7.10;99.90
15455;DHT22;21057;51.024;7.540;2023-04-08T06:31:31;7.00;99.90
15455;DHT22;21057;51.024;7.540;2023-04-08T06:33:57;7.00;99.90
15455;DHT22;21057;51.024;7.540;2023-04-08T06:36:24;7.10;99.90
15455;DHT22;21057;51.024;7.540;2023-04-08T06:38:52;7.10;99.90
15455;DHT22;21057;51.024;7.540;2023-04-08T06:41:19;7.00;99.90
15455;DHT22;21057;51.024;7.540;2023-04-08T06:43:46;7.10;99.90
15455;DHT22;21057;51.024;7.540;2023-04-08T06:46:15;7.10;99.90
15455;DHT22;21057;51.024;7.540;2023-04-08T06:48:43;7.50;99.90
15455;DHT22;21057;51.024;7.540;2023-04-08T06:51:10;7.60;99.90
15455;DHT22;21057;51.024;7.540;2023-04-08T06:53:37;7.50;99.90
15455;DHT22;21057;51.024;7.540;2023-04-08T06:56:04;7.60;99.90
15455;DHT22;21057;51.024;7.540;2023-04-08T06:58:34;7.60;99.90
15455;DHT22;21057;51.024;7.540;2023-04-08T07:01:00;7.70;99.90
15455;DHT22;21057;51.024;7.540;2023-04-08T07:03:28;7.80;99.90
15455;DHT22;21057;51.024;7.540;2023-04-08T07:05:58;8.00;99.90
15455;DHT22;21057;51.024;7.540;2023-04-08T07:08:25;8.10;99.90
15455;DHT22;21057;51.024;7.540;2023-04-08T07:10:52;8.00;99.90
15455;DHT22;21057;51.024;7.540;2023-04-08T07:13:19;8.20;99.90
15455;DHT22;21057;51.024;7.540;2023-04-08T07:15:46;8.10;99.90
15455;DHT22;21057;51.024;7.540;2023-04-08T07:18:15;8.20;99.90
15455;DHT22;21057;51.024;7.540;2023-04-08T07:20:43;8.40;99.90
15455;DHT22;21057;51.024;7.540;2023-04-08T07:23:11;8.40;99.90
15455;DHT22;21057;51.024;7.540;2023-04-08T07:25:40;8.40;99.90
15455;DHT22;21057;51.024;7.540;2023-04-08T07:28:07;8.60;99.90
15455;DHT22;21057;51.024;7.540;2023-04-08T07:30:33;8.80;99.90
15455;DHT22;21057;51.024;7.540;2023-04-08T07:33:00;8.90;99.90
15455;DHT22;21057;51.024;7.540;2023-04-08T07:35:27;8.80;99.90
15455;DHT22;21057;51.024;7.540;2023-04-08T07:37:54;8.80;99.90
15455;DHT22;21057;51.024;7.540;2023-04-08T07:40:23;8.80;99.90
15455;DHT22;21057;51.024;7.540;2023-04-08T07:42:50;8.90;99.90
15455;DHT22;21057;51.024;7.540;2023-04-08T07:45:17;9.10;99.90
15455;DHT22;21057;51.024;7.540;2023-04-08T07:47:44;9.10;99.90
15455;DHT22;21057;51.024;7.540;2023-04-08T07:50:12;9.10;99.90
15455;DHT22;21057;51.024;7.540;2023-04-08T07:52:39;9.10;99.90
15455;DHT22;21057;51.024;7.540;2023-04-08T07:55:06;9.30;99.90
15455;DHT22;21057;51.024;7.540;2023-04-08T07:57:35;9.30;99.90
15455;DHT22;21057;51.024;7.540;2023-04-08T08:00:01;9.20;99.90
15455;DHT22;21057;51.024;7.540;2023-04-08T08:02:32;9.40;99.90
15455;DHT22;21057;51.024;7.540;2023-04-08T08:05:00;9.30;99.90
15455;DHT22;21057;51.024;7.540;2023-04-08T08:07:27;9.50;99.90
15455;DHT22;21057;51.024;7.540;2023-04-08T08:09:55;9.40;99.90
15455;DHT22;21057;51.024;7.540;2023-04-08T08:12:21;9.40;99.90
15455;DHT22;21057;51.024;7.540;2023-04-08T08:14:51;9.40;99.90
15455;DHT22;21057;51.024;7.540;2023-04-08T08:17:19;9.30;99.90
15455;DHT22;21057;51.024;7.540;2023-04-08T08:19:46;9.30;99.90
15455;DHT22;21057;51.024;7.540;2023-04-08T08:22:13;9.40;99.90
15455;DHT22;21057;51.024;7.540;2023-04-08T08:24:40;9.60;99.90
15455;DHT22;21057;51.024;7.540;2023-04-08T08:27:09;9.70;99.90
15455;DHT22;21057;51.024;7.540;2023-04-08T08:29:35;9.60;99.90
15455;DHT22;21057;51.024;7.540;2023-04-08T08:32:05;9.80;99.90
15455;DHT22;21057;51.024;7.540;2023-04-08T08:34:31;9.90;99.90
15455;DHT22;21057;51.024;7.540;2023-04-08T08:36:59;10.30;99.90
15455;DHT22;21057;51.024;7.540;2023-04-08T08:39:25;10.30;99.90
15455;DHT22;21057;51.024;7.540;2023-04-08T08:41:52;10.50;99.90
15455;DHT22;21057;51.024;7.540;2023-04-08T08:44:20;10.70;99.90
15455;DHT22;21057;51.024;7.540;2023-04-08T08:46:48;10.70;99.90
15455;DHT22;21057;51.024;7.540;2023-04-08T08:49:17;10.90;99.90
15455;DHT22;21057;51.024;7.540;2023-04-08T08:51:45;10.80;99.90
15455;DHT22;21057;51.024;7.540;2023-04-08T08:54:14;11.10;99.90
15455;DHT22;21057;51.024;7.540;2023-04-08T08:56:41;11.20;99.90
15455;DHT22;21057;51.024;7.540;2023-04-08T08:59:08;11.20;99.90
15455;DHT22;21057;51.024;7.540;2023-04-08T09:01:37;11.30;99.90
15455;DHT22;21057;51.024;7.540;2023-04-08T09:04:10;11.30;99.90
15455;DHT22;21057;51.024;7.540;2023-04-08T09:06:39;11.10;99.90
15455;DHT22;21057;51.024;7.540;2023-04-08T09:09:06;10.90;99.90
15455;DHT22;21057;51.024;7.540;2023-04-08T09:11:36;11.00;99.90
15455;DHT22;21057;51.024;7.540;2023-04-08T09:14:21;11.00;99.90
15455;DHT22;21057;51.024;7.540;2023-04-08T09:16:48;11.10;99.90
15455;DHT22;21057;51.024;7.540;2023-04-08T09:19:15;11.30;99.90
15455;DHT22;21057;51.024;7.540;2023-04-08T09:21:43;11.20;99.90
15455;DHT22;21057;51.024;7.540;2023-04-08T09:24:27;11.30;99.90
15455;DHT22;21057;51.024;7.540;2023-04-08T09:26:54;11.20;99.90
15455;DHT22;21057;51.024;7.540;2023-04-08T09:29:22;11.50;99.90
15455;DHT22;21057;51.024;7.540;2023-04-08T09:31:53;11.40;99.90
15455;DHT22;21057;51.024;7.540;2023-04-08T09:34:23;11.30;99.90
15455;DHT22;21057;51.024;7.540;2023-04-08T09:36:52;11.30;99.90
15455;DHT22;21057;51.024;7.540;2023-04-08T09:39:19;11.50;99.90
15455;DHT22;21057;51.024;7.540;2023-04-08T09:41:48;11.30;99.90
15455;DHT22;21057;51.024;7.540;2023-04-08T09:44:18;11.30;99.90
15455;DHT22;21057;51.024;7.540;2023-04-08T09:47:01;11.40;99.90
15455;DHT22;21057;51.024;7.540;2023-04-08T09:49:36;11.50;99.90
15455;DHT22;21057;51.024;7.540;2023-04-08T09:52:06;11.30;99.90
15455;DHT22;21057;51.024;7.540;2023-04-08T09:54:41;11.40;99.90
15455;DHT22;21057;51.024;7.540;2023-04-08T09:57:13;11.40;99.90
15455;DHT22;21057;51.024;7.540;2023-04-08T09:59:48;11.20;99.90
15455;DHT22;21057;51.024;7.540;2023-04-08T10:02:26;11.10;99.90
15455;DHT22;21057;51.024;7.540;2023-04-08T10:05:01;10.80;99.90
15455;DHT22;21057;51.024;7.540;2023-04-08T10:07:31;10.90;99.90
15455;DHT22;21057;51.024;7.540;2023-04-08T10:10:06;11.00;99.90
15455;DHT22;21057;51.024;7.540;2023-04-08T10:12:35;11.00;99.90
15455;DHT22;21057;51.024;7.540;2023-04-08T10:15:21;11.10;99.90
15455;DHT22;21057;51.024;7.540;2023-04-08T10:17:48;11.00;99.90
15455;DHT22;21057;51.024;7.540;2023-04-08T10:20:40;11.10;99.90
15455;DHT22;21057;51.024;7.540;2023-04-08T10:23:09;11.00;99.90
15455;DHT22;21057;51.024;7.540;2023-04-08T10:25:38;11.10;99.90
15455;DHT22;21057;51.024;7.540;2023-04-08T10:28:24;11.10;99.90
15455;DHT22;21057;51.024;7.540;2023-04-08T10:30:55;11.00;99.90
15455;DHT22;21057;51.024;7.540;2023-04-08T10:33:23;10.90;99.90
15455;DHT22;21057;51.024;7.540;2023-04-08T10:35:53;10.90;99.90
15455;DHT22;21057;51.024;7.540;2023-04-08T10:38:21;10.90;99.90
15455;DHT22;21057;51.024;7.540;2023-04-08T10:40:50;11.00;99.90
15455;DHT22;21057;51.024;7.540;2023-04-08T10:43:18;11.20;99.90
15455;DHT22;21057;51.024;7.540;2023-04-08T10:45:45;11.10;99.90
15455;DHT22;21057;51.024;7.540;2023-04-08T10:48:17;11.10;99.90
15455;DHT22;21057;51.024;7.540;2023-04-08T10:50:51;11.10;99.90
15455;DHT22;21057;51.024;7.540;2023-04-08T10:53:25;11.00;99.90
15455;DHT22;21057;51.024;7.540;2023-04-08T10:55:52;11.20;99.90
15455;DHT22;21057;51.024;7.540;2023-04-08T10:58:19;11.20;99.90
15455;DHT22;21057;51.024;7.540;2023-04-08T11:00:46;11.30;99.90
15455;DHT22;21057;51.024;7.540;2023-04-08T11:03:13;11.20;99.90
15455;DHT22;21057;51.024;7.540;2023-04-08T11:05:41;11.30;99.90
15455;DHT22;21057;51.024;7.540;2023-04-08T11:08:08;11.40;99.90
15455;DHT22;21057;51.024;7.540;2023-04-08T11:10:38;11.60;99.90
15455;DHT22;21057;51.024;7.540;2023-04-08T11:13:07;11.70;99.90
15455;DHT22;21057;51.024;7.540;2023-04-08T11:15:35;11.60;99.90
15455;DHT22;21057;51.024;7.540;2023-04-08T11:18:03;11.40;99.90
15455;DHT22;21057;51.024;7.540;2023-04-08T11:20:53;11.50;99.90
15455;DHT22;21057;51.024;7.540;2023-04-08T11:23:20;11.50;99.90
15455;DHT22;21057;51.024;7.540;2023-04-08T11:25:49;11.50;99.90
15455;DHT22;21057;51.024;7.540;2023-04-08T11:30:44;11.10;99.90
15455;DHT22;21057;51.024;7.540;2023-04-08T11:33:12;11.20;99.90
15455;DHT22;21057;51.024;7.540;2023-04-08T11:35:40;11.30;99.90
15455;DHT22;21057;51.024;7.540;2023-04-08T11:38:07;11.30;99.90
15455;DHT22;21057;51.024;7.540;2023-04-08T11:40:34;11.20;99.90
15455;DHT22;21057;51.024;7.540;2023-04-08T11:43:12;11.10;99.90
15455;DHT22;21057;51.024;7.540;2023-04-08T11:45:40;11.30;99.90
15455;DHT22;21057;51.024;7.540;2023-04-08T11:48:08;11.30;99.90
15455;DHT22;21057;51.024;7.540;2023-04-08T11:50:35;11.30;99.90
15455;DHT22;21057;51.024;7.540;2023-04-08T11:53:15;11.30;99.90
15455;DHT22;21057;51.024;7.540;2023-04-08T11:55:43;11.50;99.90
15455;DHT22;21057;51.024;7.540;2023-04-08T11:58:11;11.80;99.90
15455;DHT22;21057;51.024;7.540;2023-04-08T12:00:38;12.10;99.90
15455;DHT22;21057;51.024;7.540;2023-04-08T12:03:18;12.30;99.90
15455;DHT22;21057;51.024;7.540;2023-04-08T12:05:45;12.40;99.90
15455;DHT22;21057;51.024;7.540;2023-04-08T12:08:19;12.50;99.90
15455;DHT22;21057;51.024;7.540;2023-04-08T12:10:47;12.70;99.90
15455;DHT22;21057;51.024;7.540;2023-04-08T12:13:15;12.90;99.90
15455;DHT22;21057;51.024;7.540;2023-04-08T12:15:42;13.30;99.90
15455;DHT22;21057;51.024;7.540;2023-04-08T12:18:09;13.70;99.90
15455;DHT22;21057;51.024;7.540;2023-04-08T12:20:35;13.80;99.90
15455;DHT22;21057;51.024;7.540;2023-04-08T12:23:03;13.60;99.90
15455;DHT22;21057;51.024;7.540;2023-04-08T12:25:32;13.80;99.90
15455;DHT22;21057;51.024;7.540;2023-04-08T12:27:59;14.00;99.90
15455;DHT22;21057;51.024;7.540;2023-04-08T12:30:28;14.50;99.90
15455;DHT22;21057;51.024;7.540;2023-04-08T12:33:00;15.30;99.90
15455;DHT22;21057;51.024;7.540;2023-04-08T12:35:27;16.00;99.90
15455;DHT22;21057;51.024;7.540;2023-04-08T12:37:54;17.10;99.90
15455;DHT22;21057;51.024;7.540;2023-04-08T12:40:21;18.00;99.90
15455;DHT22;21057;51.024;7.540;2023-04-08T12:42:48;18.70;99.50
15455;DHT22;21057;51.024;7.540;2023-04-08T12:45:15;19.00;98.60
15455;DHT22;21057;51.024;7.540;2023-04-08T12:47:43;19.30;98.80
15455;DHT22;21057;51.024;7.540;2023-04-08T12:50:11;19.60;97.80
15455;DHT22;21057;51.024;7.540;2023-04-08T12:52:39;19.50;96.30
15455;DHT22;21057;51.024;7.540;2023-04-08T12:55:07;19.20;98.20
15455;DHT22;21057;51.024;7.540;2023-04-08T12:57:36;19.80;98.70
15455;DHT22;21057;51.024;7.540;2023-04-08T13:00:04;20.40;97.20
15455;DHT22;21057;51.024;7.540;2023-04-08T13:02:32;20.50;95.70
15455;DHT22;21057;51.024;7.540;2023-04-08T13:05:01;20.10;94.50
15455;DHT22;21057;51.024;7.540;2023-04-08T13:07:27;20.00;94.70
15455;DHT22;21057;51.024;7.540;2023-04-08T13:09:55;19.40;96.80
15455;DHT22;21057;51.024;7.540;2023-04-08T13:12:22;18.60;97.20
15455;DHT22;21057;51.024;7.540;2023-04-08T13:14:51;18.20;99.40
15455;DHT22;21057;51.024;7.540;2023-04-08T13:17:18;17.50;99.90
15455;DHT22;21057;51.024;7.540;2023-04-08T13:19:47;16.80;99.90
15455;DHT22;21057;51.024;7.540;2023-04-08T13:22:16;16.50;99.90
15455;DHT22;21057;51.024;7.540;2023-04-08T13:24:42;16.40;99.90
15455;DHT22;21057;51.024;7.540;2023-04-08T13:27:09;16.30;99.90
15455;DHT22;21057;51.024;7.540;2023-04-08T13:29:36;16.20;99.90
15455;DHT22;21057;51.024;7.540;2023-04-08T13:32:03;16.20;99.90
15455;DHT22;21057;51.024;7.540;2023-04-08T13:34:35;15.60;99.90
15455;DHT22;21057;51.024;7.540;2023-04-08T13:37:02;15.10;99.90
15455;DHT22;21057;51.024;7.540;2023-04-08T13:39:30;14.90;99.90
15455;DHT22;21057;51.024;7.540;2023-04-08T13:41:57;14.90;99.90
15455;DHT22;21057;51.024;7.540;2023-04-08T13:44:23;14.70;99.90
15455;DHT22;21057;51.024;7.540;2023-04-08T13:46:50;14.60;99.90
15455;DHT22;21057;51.024;7.540;2023-04-08T13:49:17;14.40;99.90
15455;DHT22;21057;51.024;7.540;2023-04-08T13:51:45;14.20;99.90
15455;DHT22;21057;51.024;7.540;2023-04-08T13:54:13;14.30;99.90
15455;DHT22;21057;51.024;7.540;2023-04-08T13:56:41;14.40;99.90
15455;DHT22;21057;51.024;7.540;2023-04-08T13:59:07;14.50;99.90
15455;DHT22;21057;51.024;7.540;2023-04-08T14:01:35;14.60;99.90
15455;DHT22;21057;51.024;7.540;2023-04-08T14:04:02;14.60;99.90
15455;DHT22;21057;51.024;7.540;2023-04-08T14:06:28;14.30;99.90
15455;DHT22;21057;51.024;7.540;2023-04-08T14:08:55;14.40;99.90
15455;DHT22;21057;51.024;7.540;2023-04-08T14:11:23;14.30;99.90
15455;DHT22;21057;51.024;7.540;2023-04-08T14:13:51;14.40;99.90
15455;DHT22;21057;51.024;7.540;2023-04-08T14:16:18;14.70;99.90
15455;DHT22;21057;51.024;7.540;2023-04-08T14:18:45;14.80;99.90
15455;DHT22;21057;51.024;7.540;2023-04-08T14:21:12;14.90;99.90
15455;DHT22;21057;51.024;7.540;2023-04-08T14:23:40;14.60;99.90
15455;DHT22;21057;51.024;7.540;2023-04-08T14:26:07;14.90;99.90
15455;DHT22;21057;51.024;7.540;2023-04-08T14:28:34;14.90;99.90
15455;DHT22;21057;51.024;7.540;2023-04-08T14:31:02;14.90;99.90
15455;DHT22;21057;51.024;7.540;2023-04-08T14:33:39;14.80;99.90
15455;DHT22;21057;51.024;7.540;2023-04-08T14:36:06;14.70;99.90
15455;DHT22;21057;51.024;7.540;2023-04-08T14:38:33;14.70;99.90
15455;DHT22;21057;51.024;7.540;2023-04-08T14:41:00;14.60;99.90
15455;DHT22;21057;51.024;7.540;2023-04-08T14:43:27;14.40;99.90
15455;DHT22;21057;51.024;7.540;2023-04-08T14:45:54;14.50;99.90
15455;DHT22;21057;51.024;7.540;2023-04-08T14:48:22;14.60;99.90
15455;DHT22;21057;51.024;7.540;2023-04-08T14:50:56;14.50;99.90
15455;DHT22;21057;51.024;7.540;2023-04-08T14:53:24;14.60;99.90
15455;DHT22;21057;51.024;7.540;2023-04-08T14:55:51;14.70;99.90
15455;DHT22;21057;51.024;7.540;2023-04-08T14:58:18;14.80;99.90
15455;DHT22;21057;51.024;7.540;2023-04-08T15:00:45;14.80;99.90
15455;DHT22;21057;51.024;7.540;2023-04-08T15:03:12;14.70;99.90
15455;DHT22;21057;51.024;7.540;2023-04-08T15:05:41;14.60;99.90
15455;DHT22;21057;51.024;7.540;2023-04-08T15:08:09;14.70;99.90
15455;DHT22;21057;51.024;7.540;2023-04-08T15:10:36;14.70;99.90
15455;DHT22;21057;51.024;7.540;2023-04-08T15:13:03;14.90;99.90
15455;DHT22;21057;51.024;7.540;2023-04-08T15:15:30;15.10;99.90
15455;DHT22;21057;51.024;7.540;2023-04-08T15:17:57;15.20;99.90
15455;DHT22;21057;51.024;7.540;2023-04-08T15:20:24;15.10;99.90
15455;DHT22;21057;51.024;7.540;2023-04-08T15:22:52;15.00;99.90
15455;DHT22;21057;51.024;7.540;2023-04-08T15:25:21;15.00;99.90
15455;DHT22;21057;51.024;7.540;2023-04-08T15:27:48;15.10;99.90
15455;DHT22;21057;51.024;7.540;2023-04-08T15:30:15;15.20;99.90
15455;DHT22;21057;51.024;7.540;2023-04-08T15:32:48;15.60;99.90
15455;DHT22;21057;51.024;7.540;2023-04-08T15:35:22;15.70;99.90
15455;DHT22;21057;51.024;7.540;2023-04-08T15:37:49;15.70;99.90
15455;DHT22;21057;51.024;7.540;2023-04-08T15:40:18;15.60;99.90
15455;DHT22;21057;51.024;7.540;2023-04-08T15:42:44;15.00;99.90
15455;DHT22;21057;51.024;7.540;2023-04-08T15:45:11;14.80;99.90
15455;DHT22;21057;51.024;7.540;2023-04-08T15:47:39;14.80;99.90
15455;DHT22;21057;51.024;7.540;2023-04-08T15:50:07;14.40;99.90
15455;DHT22;21057;51.024;7.540;2023-04-08T15:52:35;14.20;99.90